Terminal Aerodrome Forecast
Issued by NWS

Home | Current Version | Previous Version | Text Only | Print | Product List | Glossary On
Versions: 1 2 3 4 5 6 7 8 9 10 11 12 13
000
FTAK31 PAFA 282322
TAFATA
TAF
PATA 282322Z 2900/2924 12008KT P6SM SCT120 BKN180
     FM291000 10008KT P6SM OVC100
     FM292000 19007KT P6SM SCT045 BKN100 PROB30 2920/2924 5SM -SHRA
      BKN035 BKN100=

USA.gov is the U.S. government's official web portal to all federal, state and local government web resources and services.